createdAt,value
2016-12-04T00:00:48.167Z,0
2016-12-04T00:01:57.880Z,0
2016-12-04T00:03:07.603Z,0
2016-12-04T00:04:17.942Z,0
2016-12-04T00:05:28.404Z,0
2016-12-04T00:06:37.801Z,0
2016-12-04T00:07:48.271Z,0
2016-12-04T00:08:58.610Z,0
2016-12-04T00:10:08.959Z,0
2016-12-04T00:11:19.290Z,0
2016-12-04T00:12:29.631Z,0
2016-12-04T00:13:39.738Z,0
2016-12-04T00:14:49.456Z,0
2016-12-04T00:15:59.621Z,0
2016-12-04T00:17:09.672Z,0
2016-12-04T00:18:19.390Z,0
2016-12-04T00:19:29.736Z,0
2016-12-04T00:20:39.750Z,0
2016-12-04T00:21:49.501Z,0
2016-12-04T00:22:59.561Z,0
2016-12-04T00:24:09.993Z,0
2016-12-04T00:25:19.708Z,0
2016-12-04T00:26:29.794Z,0
2016-12-04T00:27:40.169Z,0
2016-12-04T00:28:50.492Z,0
2016-12-04T00:30:00.951Z,0
2016-12-04T00:31:10.974Z,0
2016-12-04T00:32:21.419Z,0
2016-12-04T00:33:31.117Z,0
2016-12-04T00:34:40.903Z,0
2016-12-04T00:35:50.942Z,0
2016-12-04T00:37:01.370Z,0
2016-12-04T00:38:11.710Z,0
2016-12-04T00:39:22.040Z,0
2016-12-04T00:40:32.454Z,0
2016-12-04T00:41:42.768Z,0
2016-12-04T00:42:52.890Z,0
2016-12-04T00:44:02.909Z,0
2016-12-04T00:45:13.272Z,0
2016-12-04T00:46:23.051Z,0
2016-12-04T00:47:33.069Z,0
2016-12-04T00:48:43.109Z,0
2016-12-04T00:49:52.808Z,0
2016-12-04T00:51:03.159Z,0
2016-12-04T00:52:13.511Z,0
2016-12-04T00:53:23.241Z,0
2016-12-04T00:54:33.265Z,0
2016-12-04T00:55:43.300Z,0
2016-12-04T00:56:53.697Z,0
2016-12-04T00:58:03.223Z,0
2016-12-04T00:59:13.256Z,0
2016-12-04T01:00:22.971Z,0
2016-12-04T01:01:33.336Z,0
2016-12-04T01:02:43.382Z,0
2016-12-04T01:03:53.448Z,0
2016-12-04T01:05:03.788Z,0
2016-12-04T01:06:14.120Z,0
2016-12-04T01:07:24.171Z,0
2016-12-04T01:08:34.210Z,0
2016-12-04T01:09:44.307Z,0
2016-12-04T01:10:54.408Z,0
2016-12-04T01:12:03.784Z,0
2016-12-04T01:13:13.879Z,0
2016-12-04T01:14:23.571Z,0
2016-12-04T01:15:33.980Z,0
2016-12-04T01:16:44.029Z,0
2016-12-04T01:17:54.053Z,0
2016-12-04T01:19:04.110Z,0
2016-12-04T01:20:14.442Z,0
2016-12-04T01:21:24.469Z,0
2016-12-04T01:22:34.602Z,0
2016-12-04T01:23:44.616Z,0
2016-12-04T01:24:54.619Z,0
2016-12-04T01:26:04.638Z,0
2016-12-04T01:27:14.677Z,0
2016-12-04T01:28:24.761Z,0
2016-12-04T01:29:34.808Z,0
2016-12-04T01:30:45.150Z,0
2016-12-04T01:31:54.871Z,0
2016-12-04T01:33:04.879Z,0
2016-12-04T01:34:14.902Z,0
2016-12-04T01:35:25.271Z,0
2016-12-04T01:36:35.265Z,0
2016-12-04T01:37:45.656Z,0
2016-12-04T01:38:55.994Z,0
2016-12-04T01:40:06.016Z,0
2016-12-04T01:41:15.721Z,0
2016-12-04T01:42:26.030Z,0
2016-12-04T01:43:35.718Z,0
2016-12-04T01:44:46.040Z,0
2016-12-04T01:45:55.752Z,0
2016-12-04T01:47:05.761Z,0
2016-12-04T01:48:15.761Z,0
2016-12-04T01:49:26.095Z,0
2016-12-04T01:50:36.429Z,0
2016-12-04T01:51:46.137Z,0
2016-12-04T01:52:56.160Z,0
2016-12-04T01:54:06.470Z,0
2016-12-04T01:55:16.548Z,0
2016-12-04T01:56:26.620Z,0
2016-12-04T01:57:36.981Z,0
2016-12-04T01:58:47.322Z,0
2016-12-04T01:59:57.343Z,0
2016-12-04T02:01:07.051Z,0
2016-12-04T02:02:17.381Z,0
2016-12-04T02:03:27.506Z,0
2016-12-04T02:04:37.263Z,0
2016-12-04T02:05:46.991Z,0
2016-12-04T02:06:57.321Z,0
2016-12-04T02:08:07.648Z,0
2016-12-04T02:09:17.973Z,0
2016-12-04T02:10:28.030Z,0
2016-12-04T02:11:37.436Z,0
2016-12-04T02:12:47.479Z,0
2016-12-04T02:13:57.817Z,0
2016-12-04T02:15:08.129Z,0
2016-12-04T02:16:18.510Z,0
2016-12-04T02:17:28.522Z,0
2016-12-04T02:18:38.968Z,0
2016-12-04T02:19:49.293Z,0
2016-12-04T02:20:59.074Z,0
2016-12-04T02:22:09.390Z,0
2016-12-04T02:23:19.401Z,0
2016-12-04T02:24:29.725Z,0
2016-12-04T02:25:40.043Z,0
2016-12-04T02:26:50.130Z,0
2016-12-04T02:27:59.630Z,0
2016-12-04T02:29:09.360Z,0
2016-12-04T02:30:19.491Z,0
2016-12-04T02:31:29.187Z,0
2016-12-04T02:32:39.507Z,0
2016-12-04T02:33:49.840Z,0
2016-12-04T02:34:59.875Z,0
2016-12-04T02:36:09.888Z,0
2016-12-04T02:37:19.962Z,0
2016-12-04T02:38:29.353Z,0
2016-12-04T02:39:39.369Z,0
2016-12-04T02:40:49.076Z,0
2016-12-04T02:41:58.932Z,0
2016-12-04T02:43:08.998Z,0
2016-12-04T02:44:19.347Z,0
2016-12-04T02:45:29.444Z,0
2016-12-04T02:46:39.924Z,0
2016-12-04T02:47:50.023Z,0
2016-12-04T02:49:00.489Z,0
2016-12-04T02:50:10.797Z,0
2016-12-04T02:51:20.502Z,0
2016-12-04T02:52:30.956Z,0
2016-12-04T02:53:40.369Z,0
2016-12-04T02:54:50.431Z,0
2016-12-04T02:56:00.424Z,0
2016-12-04T02:57:10.439Z,0
2016-12-04T02:58:20.456Z,0
2016-12-04T02:59:30.383Z,0
2016-12-04T03:00:40.106Z,0
2016-12-04T03:01:49.817Z,0
2016-12-04T03:02:59.990Z,0
2016-12-04T03:04:10.118Z,0
2016-12-04T03:05:20.165Z,0
2016-12-04T03:06:29.869Z,0
2016-12-04T03:07:39.587Z,0
2016-12-04T03:08:49.596Z,0
2016-12-04T03:09:59.947Z,0
2016-12-04T03:11:09.960Z,0
2016-12-04T03:12:19.675Z,0
2016-12-04T03:13:29.208Z,0
2016-12-04T03:14:39.204Z,0
2016-12-04T03:15:48.913Z,0
2016-12-04T03:16:58.602Z,0
2016-12-04T03:18:08.650Z,0
2016-12-04T03:19:18.385Z,0
2016-12-04T03:20:27.870Z,0
2016-12-04T03:21:37.365Z,0
2016-12-04T03:22:47.386Z,0
2016-12-04T03:23:57.404Z,0
2016-12-04T03:25:07.167Z,0
2016-12-04T03:26:17.504Z,0
2016-12-04T03:27:27.650Z,0
2016-12-04T03:28:37.391Z,0
2016-12-04T03:29:47.088Z,0
2016-12-04T03:30:57.098Z,0
2016-12-04T03:32:07.175Z,0
2016-12-04T03:33:17.526Z,0
2016-12-04T03:34:27.273Z,0
2016-12-04T03:35:36.685Z,0
2016-12-04T03:36:47.126Z,0
2016-12-04T03:37:57.476Z,0
2016-12-04T03:39:07.189Z,0
2016-12-04T03:40:17.194Z,0
2016-12-04T03:41:26.607Z,0
2016-12-04T03:42:36.918Z,0
2016-12-04T03:43:46.621Z,0
2016-12-04T03:44:56.314Z,0
2016-12-04T03:46:06.013Z,0
2016-12-04T03:47:16.026Z,0
2016-12-04T03:48:25.434Z,0
2016-12-04T03:49:35.447Z,0
2016-12-04T03:50:45.144Z,0
2016-12-04T03:51:54.906Z,0
2016-12-04T03:53:04.613Z,0
2016-12-04T03:54:14.969Z,0
2016-12-04T03:55:25.118Z,0
2016-12-04T03:56:34.837Z,0
2016-12-04T03:57:44.535Z,0
2016-12-04T03:58:54.257Z,0
2016-12-04T04:00:04.307Z,0
2016-12-04T04:01:14.333Z,0
2016-12-04T04:02:24.366Z,0
2016-12-04T04:03:34.504Z,0
2016-12-04T04:04:43.903Z,0
2016-12-04T04:05:53.603Z,0
2016-12-04T04:07:03.626Z,0
2016-12-04T04:08:13.743Z,0
2016-12-04T04:09:23.471Z,0
2016-12-04T04:10:33.844Z,0
2016-12-04T04:11:44.182Z,0
2016-12-04T04:12:53.886Z,0
2016-12-04T04:14:03.604Z,0
2016-12-04T04:15:13.593Z,0
2016-12-04T04:16:23.327Z,0
2016-12-04T04:17:33.480Z,0
2016-12-04T04:18:43.185Z,0
2016-12-04T04:19:52.610Z,0
2016-12-04T04:21:02.679Z,0
2016-12-04T04:22:12.750Z,0
2016-12-04T04:23:22.465Z,0
2016-12-04T04:24:32.597Z,0
2016-12-04T04:25:42.985Z,0
2016-12-04T04:26:53.320Z,0
2016-12-04T04:28:03.375Z,0
2016-12-04T04:29:13.454Z,0
2016-12-04T04:30:23.204Z,0
2016-12-04T04:31:33.244Z,0
2016-12-04T04:32:43.731Z,0
2016-12-04T04:33:53.832Z,0
2016-12-04T04:35:03.855Z,0
2016-12-04T04:36:13.867Z,0
2016-12-04T04:37:23.886Z,0
2016-12-04T04:38:33.480Z,0
2016-12-04T04:39:42.939Z,0
2016-12-04T04:40:53.411Z,0
2016-12-04T04:42:03.431Z,0
2016-12-04T04:43:13.499Z,0
2016-12-04T04:44:23.511Z,0
2016-12-04T04:45:33.595Z,0
2016-12-04T04:46:43.615Z,0
2016-12-04T04:47:53.944Z,0
2016-12-04T04:49:03.964Z,0
2016-12-04T04:50:13.968Z,0
2016-12-04T04:51:23.696Z,0
2016-12-04T04:52:33.396Z,0
2016-12-04T04:53:43.418Z,0
2016-12-04T04:54:53.725Z,0
2016-12-04T04:56:03.433Z,0
2016-12-04T04:57:13.757Z,0
2016-12-04T04:58:23.541Z,0
2016-12-04T04:59:33.625Z,0
2016-12-04T05:00:43.942Z,0
2016-12-04T05:01:54.385Z,0
2016-12-04T05:03:04.729Z,0
2016-12-04T05:04:14.843Z,0
2016-12-04T05:05:24.382Z,0
2016-12-04T05:06:34.398Z,0
2016-12-04T05:07:44.508Z,0
2016-12-04T05:08:54.829Z,0
2016-12-04T05:10:04.900Z,0
2016-12-04T05:11:14.656Z,0
2016-12-04T05:12:24.672Z,0
2016-12-04T05:13:34.717Z,0
2016-12-04T05:14:44.805Z,0
2016-12-04T05:15:54.802Z,0
2016-12-04T05:17:04.407Z,0
2016-12-04T05:18:14.403Z,0
2016-12-04T05:19:24.413Z,0
2016-12-04T05:20:33.817Z,0
2016-12-04T05:21:43.836Z,0
2016-12-04T05:22:54.169Z,0
2016-12-04T05:24:04.287Z,0
2016-12-04T05:25:14.623Z,0
2016-12-04T05:26:24.646Z,0
2016-12-04T05:27:34.508Z,0
2016-12-04T05:28:44.842Z,0
2016-12-04T05:29:55.348Z,0
2016-12-04T05:31:05.674Z,0
2016-12-04T05:32:15.377Z,0
2016-12-04T05:33:25.685Z,0
2016-12-04T05:34:35.386Z,0
2016-12-04T05:35:45.709Z,0
2016-12-04T05:36:55.508Z,0
2016-12-04T05:38:05.930Z,0
2016-12-04T05:39:15.635Z,0
2016-12-04T05:40:25.965Z,0
2016-12-04T05:41:36.284Z,0
2016-12-04T05:42:46.298Z,0
2016-12-04T05:43:56.650Z,0
2016-12-04T05:45:06.658Z,0
2016-12-04T05:46:16.683Z,0
2016-12-04T05:47:27.036Z,0
2016-12-04T05:48:37.453Z,0
2016-12-04T05:49:47.157Z,0
2016-12-04T05:50:57.180Z,0
2016-12-04T05:52:07.223Z,0
2016-12-04T05:53:17.531Z,0
2016-12-04T05:54:27.258Z,0
2016-12-04T05:55:37.022Z,0
2016-12-04T05:56:46.725Z,0
2016-12-04T05:57:56.439Z,0
2016-12-04T05:59:06.789Z,0
2016-12-04T06:00:16.564Z,0
2016-12-04T06:01:26.256Z,0
2016-12-04T06:02:35.959Z,0
2016-12-04T06:03:45.992Z,0
2016-12-04T06:04:56.087Z,0
2016-12-04T06:06:06.091Z,0
2016-12-04T06:07:16.136Z,0
2016-12-04T06:08:26.464Z,0
2016-12-04T06:09:36.884Z,0
2016-12-04T06:10:46.914Z,0
2016-12-04T06:11:56.642Z,0
2016-12-04T06:13:06.645Z,0
2016-12-04T06:14:16.989Z,0
2016-12-04T06:15:26.381Z,0
2016-12-04T06:16:36.398Z,0
2016-12-04T06:17:46.088Z,0
2016-12-04T06:18:56.187Z,0
2016-12-04T06:20:05.987Z,0
2016-12-04T06:21:16.027Z,0
2016-12-04T06:22:26.032Z,0
2016-12-04T06:23:36.347Z,0
2016-12-04T06:24:46.394Z,0
2016-12-04T06:25:56.469Z,0
2016-12-04T06:27:06.519Z,0
2016-12-04T06:28:16.210Z,0
2016-12-04T06:29:26.525Z,0
2016-12-04T06:30:36.263Z,0
2016-12-04T06:31:46.327Z,0
2016-12-04T06:32:56.396Z,0
2016-12-04T06:34:06.481Z,0
2016-12-04T06:35:15.753Z,0
2016-12-04T06:36:25.813Z,0
2016-12-04T06:37:35.806Z,0
2016-12-04T06:38:45.761Z,0
2016-12-04T06:39:55.467Z,0
2016-12-04T06:41:05.489Z,0
2016-12-04T06:42:14.890Z,0
2016-12-04T06:43:25.232Z,0
2016-12-04T06:44:34.613Z,0
2016-12-04T06:45:44.425Z,0
2016-12-04T06:46:54.145Z,0
2016-12-04T06:48:03.647Z,0
2016-12-04T06:49:13.075Z,0
2016-12-04T06:50:22.907Z,0
2016-12-04T06:51:32.680Z,0
2016-12-04T06:52:42.636Z,0
2016-12-04T06:53:52.045Z,0
2016-12-04T06:55:02.154Z,4
2016-12-04T06:56:11.846Z,4
2016-12-04T06:57:21.860Z,0
2016-12-04T06:58:31.866Z,4
2016-12-04T06:59:41.602Z,4
2016-12-04T07:00:52.033Z,8
2016-12-04T07:02:02.050Z,4
2016-12-04T07:03:11.783Z,8
2016-12-04T07:04:21.481Z,4
2016-12-04T07:05:31.208Z,8
2016-12-04T07:06:40.689Z,12
2016-12-04T07:07:51.004Z,12
2016-12-04T07:09:01.059Z,12
2016-12-04T07:10:11.445Z,16
2016-12-04T07:11:21.160Z,16
2016-12-04T07:12:30.905Z,16
2016-12-04T07:13:41.237Z,20
2016-12-04T07:14:51.007Z,20
2016-12-04T07:16:00.426Z,20
2016-12-04T07:17:09.816Z,28
2016-12-04T07:18:19.214Z,28
2016-12-04T07:19:29.547Z,32
2016-12-04T07:20:39.278Z,32
2016-12-04T07:21:49.051Z,36
2016-12-04T07:22:58.753Z,44
2016-12-04T07:24:08.155Z,44
2016-12-04T07:25:18.677Z,48
2016-12-04T07:26:28.815Z,52
2016-12-04T07:27:39.129Z,56
2016-12-04T07:28:49.456Z,60
2016-12-04T07:29:59.741Z,64
2016-12-04T07:31:09.295Z,72
2016-12-04T07:32:19.613Z,76
2016-12-04T07:33:29.363Z,76
2016-12-04T07:34:39.406Z,84
2016-12-04T07:35:49.760Z,88
2016-12-04T07:36:59.770Z,96
2016-12-04T07:38:09.837Z,100
2016-12-04T07:39:19.949Z,108
2016-12-04T07:40:30.290Z,108
2016-12-04T07:41:40.300Z,116
2016-12-04T07:42:50.603Z,120
2016-12-04T07:44:00.786Z,128
2016-12-04T07:45:11.147Z,128
2016-12-04T07:46:21.243Z,132
2016-12-04T07:47:30.933Z,140
2016-12-04T07:48:40.557Z,148
2016-12-04T07:49:50.796Z,156
2016-12-04T07:51:01.269Z,156
2016-12-04T07:52:11.614Z,164
2016-12-04T07:53:21.814Z,172
2016-12-04T07:54:31.537Z,172
2016-12-04T07:55:41.957Z,180
2016-12-04T07:56:52.295Z,188
2016-12-04T07:58:02.313Z,192
2016-12-04T07:59:12.354Z,200
2016-12-04T08:00:22.421Z,204
2016-12-04T08:01:32.123Z,204
2016-12-04T08:02:42.463Z,208
2016-12-04T08:03:52.500Z,216
2016-12-04T08:05:02.208Z,220
2016-12-04T08:06:12.535Z,228
2016-12-04T08:07:22.851Z,232
2016-12-04T08:08:32.888Z,240
2016-12-04T08:09:42.911Z,248
2016-12-04T08:10:52.305Z,252
2016-12-04T08:12:02.380Z,256
2016-12-04T08:13:12.424Z,268
2016-12-04T08:14:22.849Z,268
2016-12-04T08:15:33.243Z,268
2016-12-04T08:16:43.376Z,280
2016-12-04T08:17:54.260Z,280
2016-12-04T08:19:03.687Z,280
2016-12-04T08:20:13.803Z,288
2016-12-04T08:21:24.466Z,288
2016-12-04T08:22:34.768Z,296
2016-12-04T08:23:45.129Z,292
2016-12-04T08:24:55.571Z,292
2016-12-04T08:26:05.909Z,300
2016-12-04T08:27:16.387Z,308
2016-12-04T08:28:25.491Z,304
2016-12-04T08:29:35.891Z,296
2016-12-04T08:30:46.664Z,296
2016-12-04T08:31:57.261Z,304
2016-12-04T08:33:07.469Z,320
2016-12-04T08:34:17.330Z,324
2016-12-04T08:35:28.619Z,332
2016-12-04T08:36:41.752Z,340
2016-12-04T08:37:51.463Z,352
2016-12-04T08:39:01.492Z,356
2016-12-04T08:40:11.509Z,352
2016-12-04T08:41:21.652Z,360
2016-12-04T08:42:31.784Z,352
2016-12-04T08:43:41.489Z,356
2016-12-04T08:44:51.572Z,352
2016-12-04T08:46:01.600Z,364
2016-12-04T08:47:11.733Z,368
2016-12-04T08:48:21.749Z,388
2016-12-04T08:49:31.503Z,396
2016-12-04T08:50:41.852Z,408
2016-12-04T08:51:52.007Z,424
2016-12-04T08:53:01.713Z,456
2016-12-04T08:54:12.039Z,464
2016-12-04T08:55:21.762Z,484
2016-12-04T08:56:31.775Z,484
2016-12-04T08:57:41.494Z,496
2016-12-04T08:58:51.839Z,496
2016-12-04T09:00:02.193Z,492
2016-12-04T09:01:12.286Z,496
2016-12-04T09:02:21.993Z,500
2016-12-04T09:03:31.783Z,496
2016-12-04T09:04:41.537Z,484
2016-12-04T09:05:51.342Z,496
2016-12-04T09:07:01.406Z,500
2016-12-04T09:08:11.736Z,484
2016-12-04T09:09:21.757Z,488
2016-12-04T09:10:31.780Z,500
2016-12-04T09:11:42.105Z,512
2016-12-04T09:12:52.161Z,512
2016-12-04T09:14:02.295Z,516
2016-12-04T09:15:12.379Z,504
2016-12-04T09:16:22.805Z,504
2016-12-04T09:17:32.544Z,508
2016-12-04T09:18:41.972Z,540
2016-12-04T09:19:52.335Z,584
2016-12-04T09:21:02.390Z,624
2016-12-04T09:22:12.123Z,636
2016-12-04T09:23:22.563Z,636
2016-12-04T09:24:32.273Z,652
2016-12-04T09:25:42.612Z,664
2016-12-04T09:26:52.700Z,676
2016-12-04T09:28:02.719Z,680
2016-12-04T09:29:13.073Z,688
2016-12-04T09:30:23.112Z,696
2016-12-04T09:31:33.239Z,708
2016-12-04T09:32:43.566Z,728
2016-12-04T09:33:53.593Z,720
2016-12-04T09:35:03.667Z,720
2016-12-04T09:36:13.809Z,708
2016-12-04T09:37:24.233Z,712
2016-12-04T09:38:34.617Z,720
2016-12-04T09:39:44.961Z,736
2016-12-04T09:40:55.280Z,740
2016-12-04T09:42:05.305Z,752
2016-12-04T09:43:14.706Z,752
2016-12-04T09:44:24.729Z,756
2016-12-04T09:45:34.819Z,756
2016-12-04T09:46:45.148Z,772
2016-12-04T09:47:55.498Z,788
2016-12-04T09:49:05.525Z,772
2016-12-04T09:50:15.011Z,768
2016-12-04T09:51:24.521Z,800
2016-12-04T09:52:34.889Z,784
2016-12-04T09:53:45.236Z,812
2016-12-04T09:54:54.943Z,800
2016-12-04T09:56:05.011Z,804
2016-12-04T09:57:15.360Z,816
2016-12-04T09:58:25.401Z,840
2016-12-04T09:59:35.751Z,856
2016-12-04T10:00:45.811Z,872
2016-12-04T10:01:55.821Z,852
2016-12-04T10:03:06.181Z,816
2016-12-04T10:04:16.512Z,808
2016-12-04T10:05:26.587Z,820
2016-12-04T10:06:37.139Z,856
2016-12-04T10:07:47.172Z,860
2016-12-04T10:08:56.986Z,836
2016-12-04T10:10:07.104Z,828
2016-12-04T10:11:17.186Z,832
2016-12-04T10:12:27.233Z,832
2016-12-04T10:13:37.298Z,816
2016-12-04T10:14:47.337Z,844
2016-12-04T10:15:57.652Z,872
2016-12-04T10:17:07.752Z,868
2016-12-04T10:18:17.770Z,852
2016-12-04T10:19:27.492Z,840
2016-12-04T10:20:37.271Z,840
2016-12-04T10:21:47.319Z,836
2016-12-04T10:22:57.353Z,844
2016-12-04T10:24:07.719Z,836
2016-12-04T10:25:17.758Z,856
2016-12-04T10:26:27.562Z,868
2016-12-04T10:27:37.598Z,904
2016-12-04T10:28:47.337Z,944
2016-12-04T10:29:57.366Z,892
2016-12-04T10:31:07.433Z,836
2016-12-04T10:32:17.254Z,876
2016-12-04T10:33:27.337Z,856
2016-12-04T10:34:36.812Z,840
2016-12-04T10:35:47.265Z,848
2016-12-04T10:36:57.599Z,896
2016-12-04T10:38:07.641Z,900
2016-12-04T10:39:17.403Z,892
2016-12-04T10:40:26.880Z,908
2016-12-04T10:41:36.892Z,872
2016-12-04T10:42:47.313Z,900
2016-12-04T10:43:57.653Z,900
2016-12-04T10:45:07.683Z,920
2016-12-04T10:46:18.090Z,948
2016-12-04T10:47:27.821Z,932
2016-12-04T10:48:37.853Z,908
2016-12-04T10:49:48.211Z,880
2016-12-04T10:50:57.941Z,904
2016-12-04T10:52:07.983Z,920
2016-12-04T10:53:17.790Z,772
2016-12-04T10:54:27.560Z,888
2016-12-04T10:55:38.164Z,904
2016-12-04T10:56:48.161Z,896
2016-12-04T10:57:58.513Z,900
2016-12-04T10:59:07.939Z,920
2016-12-04T11:00:18.549Z,888
2016-12-04T11:01:30.313Z,880
2016-12-04T11:02:41.331Z,896
2016-12-04T11:03:52.095Z,920
2016-12-04T11:05:01.817Z,900
2016-12-04T11:06:12.104Z,936
2016-12-04T11:07:22.333Z,952
2016-12-04T11:08:32.673Z,920
2016-12-04T11:09:42.713Z,932
2016-12-04T11:10:52.818Z,944
2016-12-04T11:12:02.863Z,924
2016-12-04T11:13:12.572Z,884
2016-12-04T11:14:22.634Z,864
2016-12-04T11:15:32.645Z,888
2016-12-04T11:16:42.980Z,936
2016-12-04T11:17:52.714Z,964
2016-12-04T11:19:02.444Z,876
2016-12-04T11:20:12.767Z,856
2016-12-04T11:21:22.196Z,872
2016-12-04T11:22:32.103Z,928
2016-12-04T11:23:42.442Z,928
2016-12-04T11:24:52.471Z,856
2016-12-04T11:26:02.834Z,856
2016-12-04T11:27:12.547Z,936
2016-12-04T11:28:22.446Z,912
2016-12-04T11:29:32.511Z,864
2016-12-04T11:30:42.844Z,920
2016-12-04T11:31:53.265Z,892
2016-12-04T11:33:03.604Z,840
2016-12-04T11:34:13.620Z,880
2016-12-04T11:35:23.973Z,920
2016-12-04T11:36:34.008Z,912
2016-12-04T11:37:44.127Z,892
2016-12-04T11:38:54.168Z,896
2016-12-04T11:40:04.190Z,868
2016-12-04T11:41:13.914Z,864
2016-12-04T11:42:24.395Z,896
2016-12-04T11:43:34.695Z,892
2016-12-04T11:44:45.153Z,884
2016-12-04T11:45:55.231Z,852
2016-12-04T11:47:05.259Z,812
2016-12-04T11:48:15.648Z,804
2016-12-04T11:49:25.833Z,804
2016-12-04T11:50:35.859Z,808
2016-12-04T11:51:46.199Z,820
2016-12-04T11:52:56.530Z,824
2016-12-04T11:54:06.870Z,844
2016-12-04T11:55:16.899Z,852
2016-12-04T11:56:26.759Z,856
2016-12-04T11:57:38.048Z,844
2016-12-04T11:58:48.796Z,808
2016-12-04T11:59:59.148Z,772
2016-12-04T12:01:09.184Z,768
2016-12-04T12:02:19.593Z,776
2016-12-04T12:03:29.659Z,792
2016-12-04T12:04:40.185Z,800
2016-12-04T12:05:50.232Z,776
2016-12-04T12:07:00.592Z,772
2016-12-04T12:08:10.919Z,768
2016-12-04T12:09:20.958Z,764
2016-12-04T12:10:30.662Z,760
2016-12-04T12:11:40.734Z,744
2016-12-04T12:12:51.078Z,780
2016-12-04T12:14:01.430Z,824
2016-12-04T12:15:11.515Z,848
2016-12-04T12:16:21.312Z,832
2016-12-04T12:17:31.334Z,816
2016-12-04T12:18:40.761Z,836
2016-12-04T12:19:50.862Z,792
2016-12-04T12:21:00.664Z,776
2016-12-04T12:22:10.408Z,856
2016-12-04T12:23:20.091Z,832
2016-12-04T12:24:30.155Z,804
2016-12-04T12:25:40.348Z,828
2016-12-04T12:26:50.739Z,832
2016-12-04T12:28:00.753Z,816
2016-12-04T12:29:10.376Z,820
2016-12-04T12:30:20.553Z,816
2016-12-04T12:31:30.895Z,824
2016-12-04T12:32:41.305Z,808
2016-12-04T12:33:51.064Z,752
2016-12-04T12:35:01.422Z,732
2016-12-04T12:36:11.143Z,776
2016-12-04T12:37:21.244Z,792
2016-12-04T12:38:31.319Z,808
2016-12-04T12:39:41.825Z,820
2016-12-04T12:40:52.233Z,808
2016-12-04T12:42:01.768Z,804
2016-12-04T12:43:11.171Z,828
2016-12-04T12:44:20.890Z,860
2016-12-04T12:45:30.634Z,808
2016-12-04T12:46:40.771Z,784
2016-12-04T12:47:50.442Z,784
2016-12-04T12:48:59.889Z,792
2016-12-04T12:50:09.934Z,796
2016-12-04T12:51:20.035Z,780
2016-12-04T12:52:30.553Z,780
2016-12-04T12:53:40.713Z,816
2016-12-04T12:54:50.779Z,808
2016-12-04T12:56:01.401Z,780
2016-12-04T12:57:11.225Z,728
2016-12-04T12:58:21.330Z,716
2016-12-04T12:59:31.642Z,700
2016-12-04T13:00:41.380Z,700
2016-12-04T13:01:51.420Z,724
2016-12-04T13:03:01.122Z,720
2016-12-04T13:04:11.168Z,700
2016-12-04T13:05:20.963Z,684
2016-12-04T13:06:31.291Z,668
2016-12-04T13:07:41.318Z,660
2016-12-04T13:08:51.347Z,664
2016-12-04T13:10:00.898Z,632
2016-12-04T13:11:11.027Z,636
2016-12-04T13:12:21.050Z,628
2016-12-04T13:13:30.460Z,624
2016-12-04T13:14:40.910Z,600
2016-12-04T13:15:50.984Z,620
2016-12-04T13:17:01.035Z,608
2016-12-04T13:18:11.073Z,596
2016-12-04T13:19:20.840Z,604
2016-12-04T13:20:31.227Z,608
2016-12-04T13:21:41.372Z,584
2016-12-04T13:22:51.414Z,572
2016-12-04T13:24:01.108Z,480
2016-12-04T13:25:10.942Z,508
2016-12-04T13:26:20.940Z,512
2016-12-04T13:27:30.660Z,488
2016-12-04T13:28:40.569Z,492
2016-12-04T13:29:50.994Z,500
2016-12-04T13:31:01.359Z,500
2016-12-04T13:32:11.387Z,500
2016-12-04T13:33:21.728Z,508
2016-12-04T13:34:31.496Z,488
2016-12-04T13:35:41.557Z,488
2016-12-04T13:36:51.272Z,468
2016-12-04T13:38:01.612Z,448
2016-12-04T13:39:11.641Z,456
2016-12-04T13:40:21.992Z,456
2016-12-04T13:41:32.016Z,452
2016-12-04T13:42:41.807Z,452
2016-12-04T13:43:52.154Z,448
2016-12-04T13:45:02.528Z,448
2016-12-04T13:46:12.863Z,428
2016-12-04T13:47:23.553Z,424
2016-12-04T13:48:33.902Z,412
2016-12-04T13:49:43.988Z,396
2016-12-04T13:50:54.052Z,400
2016-12-04T13:52:03.751Z,400
2016-12-04T13:53:13.813Z,392
2016-12-04T13:54:23.915Z,388
2016-12-04T13:55:33.951Z,372
2016-12-04T13:56:43.999Z,352
2016-12-04T13:57:54.398Z,340
2016-12-04T13:59:04.113Z,336
2016-12-04T14:00:14.134Z,336
2016-12-04T14:01:24.154Z,328
2016-12-04T14:02:33.873Z,332
2016-12-04T14:03:43.697Z,320
2016-12-04T14:04:54.069Z,328
2016-12-04T14:06:04.539Z,324
2016-12-04T14:07:14.660Z,312
2016-12-04T14:08:24.991Z,308
2016-12-04T14:09:35.328Z,304
2016-12-04T14:10:45.727Z,296
2016-12-04T14:11:55.745Z,288
2016-12-04T14:13:06.170Z,288
2016-12-04T14:14:16.304Z,280
2016-12-04T14:15:26.076Z,284
2016-12-04T14:16:36.706Z,268
2016-12-04T14:17:47.045Z,260
2016-12-04T14:18:56.775Z,256
2016-12-04T14:20:06.516Z,244
2016-12-04T14:21:17.017Z,244
2016-12-04T14:22:26.767Z,236
2016-12-04T14:23:37.103Z,232
2016-12-04T14:24:47.767Z,232
2016-12-04T14:25:58.255Z,224
2016-12-04T14:27:08.611Z,212
2016-12-04T14:28:18.944Z,220
2016-12-04T14:29:28.970Z,212
2016-12-04T14:30:38.988Z,204
2016-12-04T14:31:49.019Z,192
2016-12-04T14:32:59.049Z,188
2016-12-04T14:34:09.069Z,180
2016-12-04T14:35:19.516Z,176
2016-12-04T14:36:29.845Z,168
2016-12-04T14:37:40.199Z,164
2016-12-04T14:38:50.567Z,160
2016-12-04T14:39:59.979Z,156
2016-12-04T14:41:09.688Z,148
2016-12-04T14:42:19.407Z,140
2016-12-04T14:43:29.161Z,136
2016-12-04T14:44:38.803Z,132
2016-12-04T14:45:49.158Z,128
2016-12-04T14:46:59.062Z,120
2016-12-04T14:48:09.512Z,120
2016-12-04T14:49:19.540Z,112
2016-12-04T14:50:29.580Z,108
2016-12-04T14:51:39.630Z,104
2016-12-04T14:52:50.093Z,100
2016-12-04T14:53:59.807Z,96
2016-12-04T14:55:09.219Z,88
2016-12-04T14:56:19.032Z,84
2016-12-04T14:57:29.093Z,84
2016-12-04T14:58:39.578Z,76
2016-12-04T14:59:49.308Z,72
2016-12-04T15:00:59.341Z,68
2016-12-04T15:02:09.743Z,60
2016-12-04T15:03:20.068Z,60
2016-12-04T15:04:30.086Z,52
2016-12-04T15:05:39.513Z,48
2016-12-04T15:06:49.915Z,44
2016-12-04T15:07:59.950Z,44
2016-12-04T15:09:09.668Z,40
2016-12-04T15:10:19.712Z,36
2016-12-04T15:11:29.819Z,32
2016-12-04T15:12:39.602Z,32
2016-12-04T15:13:49.957Z,28
2016-12-04T15:15:00.331Z,24
2016-12-04T15:16:10.659Z,24
2016-12-04T15:17:20.370Z,20
2016-12-04T15:18:30.701Z,16
2016-12-04T15:19:40.472Z,16
2016-12-04T15:20:50.845Z,12
2016-12-04T15:22:01.538Z,12
2016-12-04T15:23:11.666Z,12
2016-12-04T15:24:21.710Z,8
2016-12-04T15:25:31.740Z,8
2016-12-04T15:26:42.117Z,8
2016-12-04T15:27:52.128Z,4
2016-12-04T15:29:02.186Z,4
2016-12-04T15:30:11.655Z,8
2016-12-04T15:31:21.091Z,4
2016-12-04T15:32:30.873Z,4
2016-12-04T15:33:41.206Z,0
2016-12-04T15:34:51.661Z,4
2016-12-04T15:36:00.743Z,0
2016-12-04T15:37:10.767Z,0
2016-12-04T15:38:20.604Z,4
2016-12-04T15:39:30.626Z,0
2016-12-04T15:40:40.966Z,0
2016-12-04T15:41:51.362Z,0
2016-12-04T15:43:01.703Z,0
2016-12-04T15:44:12.041Z,0
2016-12-04T15:45:22.071Z,0
2016-12-04T15:46:31.805Z,0
2016-12-04T15:47:41.853Z,0
2016-12-04T15:48:52.001Z,0
2016-12-04T15:50:01.752Z,0
2016-12-04T15:51:11.822Z,0
2016-12-04T15:52:21.555Z,0
2016-12-04T15:53:31.574Z,0
2016-12-04T15:54:41.632Z,0
2016-12-04T15:55:52.035Z,0
2016-12-04T15:57:02.373Z,0
2016-12-04T15:58:12.720Z,0
2016-12-04T15:59:22.823Z,0
2016-12-04T16:00:32.851Z,0
2016-12-04T16:01:42.982Z,0
2016-12-04T16:02:53.141Z,0
2016-12-04T16:04:03.483Z,0
2016-12-04T16:05:13.535Z,0
2016-12-04T16:06:23.898Z,0
2016-12-04T16:07:34.450Z,0
2016-12-04T16:08:44.500Z,0
2016-12-04T16:09:54.387Z,0
2016-12-04T16:11:04.735Z,0
2016-12-04T16:12:15.164Z,0
2016-12-04T16:13:25.183Z,0
2016-12-04T16:14:35.201Z,0
2016-12-04T16:15:45.573Z,0
2016-12-04T16:16:55.668Z,0
2016-12-04T16:18:06.037Z,0
2016-12-04T16:19:16.415Z,0
2016-12-04T16:20:26.882Z,0
2016-12-04T16:21:37.350Z,0
2016-12-04T16:22:47.418Z,0
2016-12-04T16:23:57.380Z,0
2016-12-04T16:25:07.423Z,0
2016-12-04T16:26:17.791Z,0
2016-12-04T16:27:28.140Z,0
2016-12-04T16:28:37.882Z,0
2016-12-04T16:29:47.567Z,0
2016-12-04T16:30:57.594Z,0
2016-12-04T16:32:07.641Z,0
2016-12-04T16:33:18.013Z,0
2016-12-04T16:34:28.055Z,0
2016-12-04T16:35:38.428Z,0
2016-12-04T16:36:48.459Z,0
2016-12-04T16:37:58.595Z,0
2016-12-04T16:39:08.089Z,0
2016-12-04T16:40:18.573Z,0
2016-12-04T16:41:28.613Z,0